Time;durP1;ratioP1;P1;durP2;ratioP2;P2;SDS_P1;SDS_P2;PMS_P1;PMS_P2;Temp;Humidity;BMP_temperature;BMP_pressure;BME280_temperature;BME280_humidity;BME280_pressure;Samples;Min_cycle;Max_cycle;Signal;HPM_P1;HPM_P2
2021/09/19 00:01:04;;;;;;;3.55;3.20;;;15.80;79.80;;;;;;5075218;28;20019;-80
2021/09/19 00:03:30;;;;;;;3.90;3.60;;;15.80;79.70;;;;;;5074023;28;20024;-79
2021/09/19 00:05:56;;;;;;;3.55;3.25;;;15.80;79.80;;;;;;5073835;28;20538;-79
2021/09/19 00:08:21;;;;;;;3.92;3.35;;;15.80;79.90;;;;;;5073775;28;20046;-79
2021/09/19 00:10:48;;;;;;;3.55;3.25;;;15.80;79.90;;;;;;5073831;28;20412;-79
2021/09/19 00:13:14;;;;;;;3.55;3.22;;;15.70;79.90;;;;;;5075029;28;20044;-79
2021/09/19 00:15:40;;;;;;;3.75;3.28;;;15.80;80.00;;;;;;5075010;28;20056;-79
2021/09/19 00:18:06;;;;;;;4.00;3.28;;;15.70;80.00;;;;;;5073544;28;20024;-78
2021/09/19 00:20:31;;;;;;;3.55;3.25;;;15.70;80.00;;;;;;5074073;28;20093;-79
2021/09/19 00:22:57;;;;;;;3.40;3.10;;;15.70;80.10;;;;;;5074963;28;20052;-79
2021/09/19 00:25:22;;;;;;;4.65;3.38;;;15.70;80.10;;;;;;5074901;28;20028;-79
2021/09/19 00:27:48;;;;;;;3.80;3.42;;;15.70;80.20;;;;;;5074910;28;20500;-79
2021/09/19 00:30:14;;;;;;;5.03;3.95;;;15.70;80.30;;;;;;5074739;28;20055;-79
2021/09/19 00:32:40;;;;;;;4.05;3.72;;;15.60;80.30;;;;;;5074904;28;20021;-80
2021/09/19 00:35:07;;;;;;;4.03;3.25;;;15.60;80.40;;;;;;5074788;28;20052;-79
2021/09/19 00:37:32;;;;;;;4.00;3.60;;;15.60;80.50;;;;;;5073635;28;20315;-80
2021/09/19 00:39:58;;;;;;;3.42;3.15;;;15.60;80.60;;;;;;5074685;28;20489;-80
2021/09/19 00:42:24;;;;;;;3.67;3.38;;;15.60;80.60;;;;;;5073251;28;20108;-79
2021/09/19 00:45:06;;;;;;;4.80;3.50;;;15.60;80.70;;;;;;5074582;28;20020;-80
2021/09/19 00:47:31;;;;;;;4.75;3.70;;;15.60;80.80;;;;;;5073247;28;20538;-79
2021/09/19 00:49:57;;;;;;;3.88;3.58;;;15.50;80.70;;;;;;5072981;28;20025;-80
2021/09/19 00:52:23;;;;;;;4.05;3.60;;;15.50;80.80;;;;;;5072991;28;20360;-79
2021/09/19 00:54:50;;;;;;;4.05;3.65;;;15.50;80.80;;;;;;5072897;28;20369;-80
2021/09/19 00:57:17;;;;;;;3.95;3.50;;;15.50;80.90;;;;;;5072854;28;20024;-80
2021/09/19 00:59:52;;;;;;;3.72;3.33;;;15.50;81.00;;;;;;5072802;28;20032;-79
2021/09/19 01:02:19;;;;;;;4.65;3.90;;;15.50;81.10;;;;;;5072764;28;20539;-80
2021/09/19 01:04:45;;;;;;;3.97;3.58;;;15.50;81.10;;;;;;5072644;28;20078;-80
2021/09/19 01:07:11;;;;;;;4.10;3.70;;;15.50;81.10;;;;;;5072637;28;20021;-79
2021/09/19 01:09:38;;;;;;;3.72;3.33;;;15.50;81.20;;;;;;5074284;28;20025;-79
2021/09/19 01:12:04;;;;;;;4.70;4.30;;;15.40;81.30;;;;;;5071530;28;20024;-79
2021/09/19 01:14:31;;;;;;;4.82;4.32;;;15.40;81.30;;;;;;5072592;28;20055;-79
2021/09/19 01:17:00;;;;;;;4.65;3.70;;;15.40;81.40;;;;;;5072407;28;20016;-78
2021/09/19 01:19:26;;;;;;;3.70;3.33;;;15.40;81.50;;;;;;5072293;28;20032;-79
2021/09/19 01:21:52;;;;;;;4.50;4.10;;;15.30;81.50;;;;;;5072147;28;20024;-79
2021/09/19 01:24:19;;;;;;;4.43;4.03;;;15.30;81.50;;;;;;5073449;28;20027;-79
2021/09/19 01:26:44;;;;;;;4.50;4.10;;;15.30;81.60;;;;;;5072352;28;20020;-79
2021/09/19 01:29:10;;;;;;;4.90;4.40;;;15.30;81.70;;;;;;5073511;28;20016;-79
2021/09/19 01:31:38;;;;;;;4.43;4.03;;;15.30;81.70;;;;;;5072224;28;20062;-79
2021/09/19 01:34:04;;;;;;;4.60;4.20;;;15.30;81.70;;;;;;5072196;28;20488;-79
2021/09/19 01:36:36;;;;;;;4.38;3.97;;;15.30;81.80;;;;;;5072072;28;20495;-79
2021/09/19 01:39:06;;;;;;;5.47;4.25;;;15.30;81.90;;;;;;5072037;28;20043;-80
2021/09/19 01:41:33;;;;;;;5.28;4.35;;;15.30;81.90;;;;;;5072075;28;20028;-80
2021/09/19 01:43:58;;;;;;;4.97;4.47;;;15.30;81.90;;;;;;5071899;28;20086;-79
2021/09/19 01:46:24;;;;;;;4.72;4.25;;;15.30;81.90;;;;;;5073201;28;20021;-80
2021/09/19 01:48:49;;;;;;;4.90;4.50;;;15.30;81.80;;;;;;5071908;28;20027;-80
2021/09/19 01:51:15;;;;;;;4.88;4.40;;;15.30;81.90;;;;;;5071916;28;20029;-79
2021/09/19 01:53:42;;;;;;;4.45;4.05;;;15.30;81.90;;;;;;5071968;28;20046;-79
2021/09/19 01:56:09;;;;;;;4.43;4.03;;;15.30;82.60;;;;;;5071817;28;20021;-79
2021/09/19 01:58:46;;;;;;;4.53;4.13;;;15.30;82.00;;;;;;5071828;28;20079;-79
2021/09/19 02:01:12;;;;;;;5.88;4.75;;;15.30;82.10;;;;;;5071706;28;20021;-80
2021/09/19 02:03:39;;;;;;;5.53;4.90;;;15.20;82.10;;;;;;5071669;28;20024;-80
2021/09/19 02:06:07;;;;;;;5.38;4.85;;;15.20;82.20;;;;;;5071574;28;20031;-79
2021/09/19 02:08:36;;;;;;;5.15;4.63;;;15.20;82.20;;;;;;5071635;28;20064;-79
2021/09/19 02:11:07;;;;;;;4.70;4.30;;;15.20;82.30;;;;;;5071563;28;20022;-79
2021/09/19 02:13:34;;;;;;;5.32;4.82;;;15.20;82.40;;;;;;5071843;28;20028;-79
2021/09/19 02:16:00;;;;;;;5.18;4.68;;;15.10;82.40;;;;;;5071430;28;20028;-80
2021/09/19 02:18:27;;;;;;;5.35;4.85;;;15.10;82.50;;;;;;5071663;28;20024;-80
2021/09/19 02:20:53;;;;;;;4.82;4.43;;;15.10;82.60;;;;;;5071542;28;20164;-80
2021/09/19 02:23:19;;;;;;;5.90;5.30;;;15.10;82.70;;;;;;5072335;28;20119;-80
2021/09/19 02:25:45;;;;;;;5.07;4.57;;;15.10;82.70;;;;;;5071375;28;20115;-80
2021/09/19 02:28:12;;;;;;;6.57;4.95;;;15.00;82.70;;;;;;5071418;28;20126;-79
2021/09/19 02:30:37;;;;;;;5.03;4.53;;;15.10;82.80;;;;;;5072798;28;20031;-80
2021/09/19 02:33:03;;;;;;;4.75;4.20;;;15.00;82.70;;;;;;5072667;28;20032;-80
2021/09/19 02:35:30;;;;;;;5.90;5.32;;;15.00;82.70;;;;;;5071322;28;20472;-80
2021/09/19 02:37:55;;;;;;;5.28;4.82;;;15.00;82.80;;;;;;5071299;28;20024;-80
2021/09/19 02:40:21;;;;;;;5.63;5.03;;;15.00;82.80;;;;;;5073197;28;20043;-80
2021/09/19 02:42:51;;;;;;;5.65;5.05;;;15.00;82.90;;;;;;5071407;28;20048;-79
2021/09/19 02:45:16;;;;;;;5.60;5.10;;;15.10;83.00;;;;;;5071160;28;20115;-80
2021/09/19 02:47:43;;;;;;;6.15;5.47;;;15.00;83.00;;;;;;5071605;28;20507;-80
2021/09/19 02:50:10;;;;;;;5.70;4.80;;;15.00;82.90;;;;;;5071386;28;20035;-79
2021/09/19 02:52:36;;;;;;;6.20;5.30;;;15.00;83.00;;;;;;5072550;28;20024;-80
2021/09/19 02:55:02;;;;;;;6.15;5.55;;;15.00;83.60;;;;;;5071440;28;20031;-79
2021/09/19 02:57:28;;;;;;;5.55;5.05;;;15.00;83.10;;;;;;5072517;28;20033;-79
2021/09/19 02:59:53;;;;;;;5.53;4.97;;;15.00;83.10;;;;;;5071206;28;20021;-80
2021/09/19 03:02:19;;;;;;;5.88;5.38;;;15.00;83.20;;;;;;5072374;28;20104;-80
2021/09/19 03:04:44;;;;;;;6.18;5.57;;;15.00;83.20;;;;;;5071137;28;20021;-80
2021/09/19 03:07:10;;;;;;;5.32;4.82;;;15.00;83.30;;;;;;5072387;28;20025;-80
2021/09/19 03:09:36;;;;;;;6.38;5.43;;;15.00;83.20;;;;;;5071122;28;20021;-80
2021/09/19 03:12:01;;;;;;;6.20;5.40;;;15.00;83.30;;;;;;5072438;28;20025;-80
2021/09/19 03:14:27;;;;;;;5.60;5.10;;;15.00;83.30;;;;;;5070987;28;20017;-80
2021/09/19 03:16:52;;;;;;;5.90;5.30;;;15.00;83.30;;;;;;5070991;28;20039;-80
2021/09/19 03:19:18;;;;;;;6.07;5.47;;;15.00;83.30;;;;;;5071616;28;20020;-80
2021/09/19 03:21:44;;;;;;;6.03;5.28;;;15.00;83.30;;;;;;5072057;28;20032;-79
2021/09/19 03:24:09;;;;;;;5.88;5.10;;;15.00;83.30;;;;;;5070929;28;20031;-80
2021/09/19 03:26:35;;;;;;;6.75;6.05;;;15.00;83.30;;;;;;5070986;28;20016;-79
2021/09/19 03:29:03;;;;;;;5.80;5.30;;;15.10;83.40;;;;;;5072185;28;20024;-78
2021/09/19 03:31:28;;;;;;;5.25;4.68;;;15.10;83.30;;;;;;5070932;28;20016;-79
2021/09/19 03:33:54;;;;;;;5.93;5.32;;;15.10;83.30;;;;;;5071118;28;20070;-79
2021/09/19 03:36:20;;;;;;;5.40;4.90;;;15.20;83.30;;;;;;5075687;28;20103;-79
2021/09/19 03:38:46;;;;;;;6.57;5.00;;;15.20;83.20;;;;;;5074423;28;20029;-79
2021/09/19 03:41:14;;;;;;;5.63;5.13;;;15.10;83.10;;;;;;5075632;28;20074;-79
2021/09/19 03:43:41;;;;;;;5.13;4.45;;;15.20;83.20;;;;;;5075669;28;20538;-80
2021/09/19 03:46:07;;;;;;;5.45;4.95;;;15.20;83.20;;;;;;5075379;28;20016;-79
2021/09/19 03:48:32;;;;;;;6.10;5.50;;;15.20;83.80;;;;;;5074660;28;20095;-79
2021/09/19 03:50:59;;;;;;;5.97;4.88;;;15.20;83.20;;;;;;5074155;28;20079;-79
2021/09/19 03:53:25;;;;;;;5.03;4.53;;;15.20;83.30;;;;;;5074237;28;20013;-80
2021/09/19 03:55:50;;;;;;;5.68;5.18;;;15.20;83.20;;;;;;5074043;28;20077;-80
2021/09/19 03:58:16;;;;;;;5.75;5.15;;;15.10;83.20;;;;;;5074095;28;20047;-79
2021/09/19 04:00:42;;;;;;;5.45;4.95;;;15.10;83.30;;;;;;5074319;28;20131;-79
2021/09/19 04:03:07;;;;;;;5.20;4.70;;;15.10;83.30;;;;;;5075288;28;20111;-79
2021/09/19 04:05:35;;;;;;;5.93;5.00;;;15.10;83.40;;;;;;5073892;28;20036;-79
2021/09/19 04:08:01;;;;;;;5.70;5.20;;;15.00;83.40;;;;;;5075255;28;20460;-80
2021/09/19 04:10:26;;;;;;;5.53;5.03;;;15.00;83.50;;;;;;5074101;28;20027;-79
2021/09/19 04:12:52;;;;;;;5.43;4.93;;;15.00;83.50;;;;;;5074091;28;20017;-79
2021/09/19 04:15:17;;;;;;;5.78;4.90;;;15.00;83.60;;;;;;5073839;28;20044;-79
2021/09/19 04:17:43;;;;;;;5.32;4.82;;;15.00;83.70;;;;;;5073816;28;20058;-79
2021/09/19 04:20:09;;;;;;;6.43;4.68;;;15.00;83.70;;;;;;5074059;28;20059;-79
2021/09/19 04:22:35;;;;;;;5.25;4.75;;;15.00;83.70;;;;;;5073669;28;20037;-80
2021/09/19 04:25:01;;;;;;;4.97;4.57;;;14.90;83.70;;;;;;5073871;28;20025;-79
2021/09/19 04:30:49;;;;;;;4.82;4.28;;;14.80;83.80;;;;;;5075365;28;20488;-79
2021/09/19 04:33:14;;;;;;;6.00;4.55;;;14.80;83.80;;;;;;5075365;28;20017;-79
2021/09/19 04:35:40;;;;;;;5.40;4.90;;;14.70;83.90;;;;;;5073811;28;20438;-79
2021/09/19 04:38:06;;;;;;;5.30;4.80;;;14.70;84.00;;;;;;5074893;28;20028;-79
2021/09/19 04:40:32;;;;;;;5.15;4.65;;;14.70;84.10;;;;;;5073526;28;20039;-78
2021/09/19 04:42:58;;;;;;;5.20;4.70;;;14.60;84.10;;;;;;5073375;28;20020;-79
2021/09/19 04:45:23;;;;;;;6.50;5.78;;;14.60;84.20;;;;;;5073383;28;20032;-79
2021/09/19 04:47:49;;;;;;;4.93;4.53;;;14.50;84.20;;;;;;5073460;28;20056;-78
2021/09/19 04:50:15;;;;;;;4.97;4.47;;;14.50;84.30;;;;;;5073111;28;20025;-78
2021/09/19 04:52:40;;;;;;;5.20;4.72;;;14.50;84.30;;;;;;5073075;28;20021;-79
2021/09/19 04:55:06;;;;;;;5.47;4.97;;;14.40;84.50;;;;;;5074212;28;20028;-79
2021/09/19 04:57:32;;;;;;;5.22;4.72;;;14.40;84.50;;;;;;5073086;28;20020;-79
2021/09/19 04:59:57;;;;;;;6.22;5.05;;;14.40;84.60;;;;;;5074121;28;20362;-79
2021/09/19 05:02:23;;;;;;;5.28;4.80;;;14.40;84.60;;;;;;5072833;28;20025;-79
2021/09/19 05:04:49;;;;;;;5.40;4.90;;;14.40;84.60;;;;;;5072856;28;20461;-79
2021/09/19 05:07:14;;;;;;;5.13;4.63;;;14.40;84.70;;;;;;5072731;28;20453;-79
2021/09/19 05:09:42;;;;;;;5.90;5.40;;;14.30;84.70;;;;;;5074316;28;20024;-79
2021/09/19 05:12:08;;;;;;;4.75;4.35;;;14.30;84.70;;;;;;5072658;28;20082;-79
2021/09/19 05:14:33;;;;;;;5.10;4.47;;;14.30;84.70;;;;;;5072892;28;20067;-79
2021/09/19 05:16:59;;;;;;;5.97;5.13;;;14.30;84.70;;;;;;5073819;28;20029;-78
2021/09/19 05:19:25;;;;;;;5.80;4.80;;;14.30;84.80;;;;;;5072366;28;20097;-79
2021/09/19 05:21:50;;;;;;;5.35;4.82;;;14.20;84.80;;;;;;5072285;28;20027;-79
2021/09/19 05:24:16;;;;;;;5.35;4.90;;;14.20;84.80;;;;;;5073739;28;20132;-79
2021/09/19 05:26:41;;;;;;;5.78;5.18;;;14.20;84.90;;;;;;5073603;28;20016;-79
2021/09/19 05:29:07;;;;;;;5.32;4.82;;;14.20;84.90;;;;;;5073598;28;20095;-79
2021/09/19 05:31:33;;;;;;;5.55;4.70;;;14.20;84.90;;;;;;5072248;28;20024;-78
2021/09/19 05:33:59;;;;;;;5.90;4.82;;;14.20;84.90;;;;;;5072200;28;20066;-78
2021/09/19 05:36:24;;;;;;;5.35;4.85;;;14.20;85.00;;;;;;5072109;28;20445;-79
2021/09/19 05:38:50;;;;;;;5.28;4.65;;;14.10;85.00;;;;;;5072015;28;20090;-79
2021/09/19 05:41:15;;;;;;;6.00;5.35;;;14.20;85.10;;;;;;5073354;28;20020;-80
2021/09/19 05:43:41;;;;;;;5.90;5.32;;;14.20;85.70;;;;;;5072123;28;20032;-80
2021/09/19 05:46:07;;;;;;;5.80;5.28;;;14.20;85.10;;;;;;5071833;28;20047;-79
2021/09/19 05:48:33;;;;;;;5.60;5.00;;;14.10;85.10;;;;;;5072438;28;20027;-79
2021/09/19 05:50:58;;;;;;;5.40;4.88;;;14.20;85.10;;;;;;5073254;28;20103;-80
2021/09/19 05:56:46;;;;;;;6.00;5.22;;;14.10;85.20;;;;;;5072976;28;20031;-80
2021/09/19 05:59:11;;;;;;;5.80;5.22;;;14.10;85.10;;;;;;5071880;28;20021;-79
2021/09/19 06:01:37;;;;;;;5.25;4.75;;;14.10;85.10;;;;;;5073142;28;20392;-79
2021/09/19 06:04:03;;;;;;;5.95;5.10;;;14.10;85.20;;;;;;5072110;28;20028;-79
2021/09/19 06:06:28;;;;;;;5.63;5.13;;;14.20;85.20;;;;;;5072970;28;20028;-79
2021/09/19 06:08:54;;;;;;;6.15;5.55;;;14.20;85.30;;;;;;5071742;28;20139;-81
2021/09/19 06:11:19;;;;;;;4.88;4.40;;;14.20;85.20;;;;;;5071876;28;20021;-80
2021/09/19 06:13:45;;;;;;;6.53;5.53;;;14.20;85.20;;;;;;5071749;28;20097;-80
2021/09/19 06:16:11;;;;;;;5.72;4.70;;;14.20;85.20;;;;;;5072984;28;20467;-80
2021/09/19 06:18:37;;;;;;;6.05;5.07;;;14.20;85.20;;;;;;5071984;28;20021;-79
2021/09/19 06:21:03;;;;;;;5.53;4.93;;;14.20;85.10;;;;;;5071771;28;20028;-79
2021/09/19 06:23:30;;;;;;;5.78;4.70;;;14.30;85.20;;;;;;5072849;28;20037;-80
2021/09/19 06:25:56;;;;;;;6.13;5.47;;;14.30;85.20;;;;;;5072791;28;20546;-79
2021/09/19 06:28:22;;;;;;;5.28;4.78;;;14.30;85.10;;;;;;5071592;28;20016;-80
2021/09/19 06:30:48;;;;;;;5.60;5.05;;;14.30;85.10;;;;;;5072861;28;20404;-80
2021/09/19 06:33:14;;;;;;;5.35;4.85;;;14.30;85.10;;;;;;5071812;28;20419;-80
2021/09/19 06:35:40;;;;;;;5.85;5.05;;;14.30;85.10;;;;;;5071500;28;20016;-80
2021/09/19 06:38:06;;;;;;;5.22;4.72;;;14.40;85.10;;;;;;5071484;28;20028;-79
2021/09/19 06:40:32;;;;;;;5.00;4.60;;;14.30;85.10;;;;;;5071483;28;20565;-79
2021/09/19 06:42:57;;;;;;;5.35;4.85;;;14.40;85.10;;;;;;5072604;28;20033;-79
2021/09/19 06:45:23;;;;;;;5.90;4.97;;;14.40;85.00;;;;;;5071329;28;20024;-79
2021/09/19 06:47:48;;;;;;;5.78;5.00;;;14.50;85.00;;;;;;5071346;28;20472;-79
2021/09/19 06:50:14;;;;;;;6.25;5.43;;;14.50;85.00;;;;;;5072963;28;20446;-79
2021/09/19 06:52:40;;;;;;;5.15;4.65;;;14.50;84.90;;;;;;5071282;28;20446;-78
2021/09/19 06:55:07;;;;;;;5.13;4.63;;;14.50;84.90;;;;;;5072867;28;20032;-80
2021/09/19 06:57:33;;;;;;;4.47;4.07;;;14.50;84.90;;;;;;5071225;28;20028;-79
2021/09/19 06:59:58;;;;;;;5.55;5.05;;;14.50;84.80;;;;;;5071125;28;20170;-79
2021/09/19 07:02:24;;;;;;;5.57;5.07;;;14.50;84.80;;;;;;5071137;28;20119;-79
2021/09/19 07:04:49;;;;;;;5.63;5.13;;;14.60;84.80;;;;;;5072389;28;20031;-79
2021/09/19 07:07:15;;;;;;;5.30;4.80;;;14.60;84.70;;;;;;5072465;28;20020;-80
2021/09/19 07:13:09;;;;;;;4.90;4.50;;;14.70;84.60;;;;;;5076707;28;20027;-78
2021/09/19 07:15:34;;;;;;;4.53;4.13;;;14.90;84.50;;;;;;5074844;28;20021;-79
2021/09/19 07:18:00;;;;;;;4.95;4.40;;;14.90;84.30;;;;;;5075039;28;20047;-80
2021/09/19 07:20:26;;;;;;;4.40;4.00;;;15.00;84.10;;;;;;5076419;28;20033;-79
2021/09/19 07:22:51;;;;;;;5.20;4.70;;;15.10;84.00;;;;;;5076402;28;20067;-82
2021/09/19 07:25:17;;;;;;;5.20;4.68;;;15.10;83.90;;;;;;5076206;28;20393;-79
2021/09/19 07:27:43;;;;;;;5.25;3.90;;;15.20;83.80;;;;;;5075191;28;20048;-82
2021/09/19 07:30:09;;;;;;;4.53;4.13;;;15.20;83.70;;;;;;5074854;28;20111;-79
2021/09/19 07:32:36;;;;;;;4.65;4.25;;;15.20;83.70;;;;;;5076064;28;20021;-82
2021/09/19 07:35:03;;;;;;;4.45;4.05;;;15.30;83.70;;;;;;5075383;28;20021;-80
2021/09/19 07:37:31;;;;;;;4.35;3.92;;;15.30;83.60;;;;;;5072816;28;20036;-81
2021/09/19 07:39:59;;;;;;;4.45;4.00;;;15.30;83.60;;;;;;5077163;28;20396;-80
2021/09/19 07:42:27;;;;;;;4.63;3.97;;;15.40;83.60;;;;;;5075458;28;20032;-79
2021/09/19 07:44:52;;;;;;;4.50;4.10;;;15.40;83.50;;;;;;5075042;28;20040;-81
2021/09/19 07:47:18;;;;;;;4.18;3.78;;;15.40;83.50;;;;;;5075169;28;20024;-80
2021/09/19 07:49:44;;;;;;;4.60;4.20;;;15.50;83.50;;;;;;5075424;28;20044;-80
2021/09/19 07:52:11;;;;;;;4.43;3.72;;;15.50;83.50;;;;;;5074869;28;20021;-80
2021/09/19 07:54:37;;;;;;;4.70;4.30;;;15.60;83.40;;;;;;5094437;28;20047;-81
2021/09/19 07:57:03;;;;;;;4.63;4.15;;;15.60;83.30;;;;;;5094334;28;20036;-81
2021/09/19 07:59:28;;;;;;;4.35;4.00;;;15.70;83.30;;;;;;5094257;28;20038;-81
2021/09/19 08:01:54;;;;;;;4.60;4.18;;;15.70;83.20;;;;;;5094342;28;20529;-80
2021/09/19 08:04:20;;;;;;;4.60;4.20;;;15.80;83.10;;;;;;5077215;28;20044;-81
2021/09/19 08:06:45;;;;;;;4.50;4.10;;;15.90;83.10;;;;;;5094226;28;20017;-81
2021/09/19 08:09:11;;;;;;;4.13;3.70;;;15.90;82.90;;;;;;5094357;28;20060;-81
2021/09/19 08:11:37;;;;;;;3.58;3.28;;;16.00;82.90;;;;;;5094457;28;20106;-80
2021/09/19 08:14:07;;;;;;;4.60;4.20;;;16.00;82.80;;;;;;5093919;28;20036;-79
2021/09/19 08:16:38;;;;;;;3.80;3.50;;;16.00;83.40;;;;;;5093846;28;20146;-80
2021/09/19 08:19:05;;;;;;;4.15;3.80;;;16.10;82.70;;;;;;5093572;28;20119;-80
2021/09/19 08:21:30;;;;;;;4.10;3.78;;;16.00;82.60;;;;;;5092585;28;20057;-80
2021/09/19 08:23:56;;;;;;;2.95;2.75;;;16.10;82.60;;;;;;5092835;28;20131;-80
2021/09/19 08:26:22;;;;;;;4.00;3.60;;;16.10;82.50;;;;;;5077904;28;20067;-80
2021/09/19 08:28:48;;;;;;;4.07;3.70;;;16.20;82.60;;;;;;5074272;28;20021;-81
2021/09/19 08:31:14;;;;;;;4.05;2.92;;;16.30;82.50;;;;;;5071391;28;20028;-78
2021/09/19 08:33:40;;;;;;;4.38;3.40;;;16.40;82.40;;;;;;5075063;28;20075;-80
2021/09/19 08:39:27;;;;;;;3.80;3.10;;;16.50;82.20;;;;;;5075021;28;20110;-77
2021/09/19 08:41:58;;;;;;;3.35;3.05;;;16.50;82.00;;;;;;5074790;28;20082;-78
2021/09/19 08:44:50;;;;;;;3.08;2.78;;;16.60;82.00;;;;;;5092582;28;20100;-77
2021/09/19 08:47:15;;;;;;;3.30;3.00;;;16.70;81.80;;;;;;5075215;28;20058;-76
2021/09/19 08:49:42;;;;;;;3.17;2.95;;;16.80;81.80;;;;;;5073101;28;20115;-81
2021/09/19 08:52:10;;;;;;;3.40;3.05;;;16.80;81.70;;;;;;5073197;28;20492;-77
2021/09/19 08:54:37;;;;;;;3.20;2.90;;;16.90;81.60;;;;;;5073324;28;20024;-78
2021/09/19 08:57:02;;;;;;;4.05;2.92;;;17.00;81.50;;;;;;5074143;28;20105;-77
2021/09/19 08:59:49;;;;;;;3.47;3.10;;;17.10;81.40;;;;;;5074172;28;20075;-76
2021/09/19 09:05:37;;;;;;;3.05;2.60;;;17.20;81.20;;;;;;5074331;28;20062;-77
2021/09/19 09:08:04;;;;;;;4.57;3.03;;;17.20;81.00;;;;;;5074211;28;20021;-78
2021/09/19 09:10:42;;;;;;;3.40;3.10;;;17.30;80.90;;;;;;5072687;28;20058;-79
2021/09/19 09:13:13;;;;;;;3.17;2.88;;;17.30;80.80;;;;;;5072664;28;20557;-78
2021/09/19 09:15:51;;;;;;;3.00;2.78;;;17.40;80.80;;;;;;5074889;28;20043;-85
2021/09/19 09:18:32;;;;;;;3.30;3.00;;;17.40;80.70;;;;;;5070569;28;20044;-84
2021/09/19 09:21:09;;;;;;;3.15;2.85;;;17.50;80.60;;;;;;5074926;28;20032;-86
2021/09/19 09:23:40;;;;;;;3.30;3.00;;;17.50;80.60;;;;;;5074254;28;20094;-85
2021/09/19 09:26:17;;;;;;;3.00;2.65;;;17.50;80.50;;;;;;5075769;28;20040;-84
2021/09/19 09:32:14;;;;;;;2.85;2.65;;;17.70;80.30;;;;;;5073907;28;20149;-85
2021/09/19 09:34:39;;;;;;;3.35;3.03;;;17.80;80.30;;;;;;5073632;28;20025;-84
2021/09/19 09:37:05;;;;;;;3.63;3.17;;;17.80;80.10;;;;;;5074370;28;20046;-84
2021/09/19 09:39:31;;;;;;;3.33;2.95;;;17.90;80.00;;;;;;5073308;28;20025;-85
2021/09/19 09:42:07;;;;;;;4.18;2.85;;;18.00;79.90;;;;;;5072781;28;20496;-83
2021/09/19 09:44:34;;;;;;;3.65;2.42;;;18.10;79.80;;;;;;5073106;28;20535;-87
2021/09/19 09:47:04;;;;;;;2.92;2.65;;;18.10;79.70;;;;;;5073158;28;20044;-85
2021/09/19 09:49:42;;;;;;;2.58;2.38;;;18.20;79.50;;;;;;5073032;28;20031;-86
2021/09/19 09:52:21;;;;;;;2.78;2.58;;;18.30;79.30;;;;;;5073118;28;20016;-79
2021/09/19 09:54:55;;;;;;;2.90;2.60;;;18.40;79.10;;;;;;5071862;28;20024;-78
2021/09/19 09:57:36;;;;;;;2.67;2.47;;;18.50;78.80;;;;;;5073111;28;20033;-78
2021/09/19 10:00:06;;;;;;;2.40;2.20;;;18.60;78.60;;;;;;5071624;28;20021;-78
2021/09/19 10:02:33;;;;;;;2.20;2.00;;;18.70;78.40;;;;;;5073202;28;20021;-79
2021/09/19 10:05:00;;;;;;;2.47;2.28;;;18.70;78.20;;;;;;5072885;28;20124;-79
2021/09/19 10:07:25;;;;;;;2.75;2.33;;;18.80;78.00;;;;;;5073028;28;20027;-79
2021/09/19 10:09:52;;;;;;;2.92;2.63;;;18.90;77.80;;;;;;5071717;28;20379;-79
2021/09/19 10:12:22;;;;;;;2.45;2.20;;;18.90;77.20;;;;;;5072888;28;20032;-79
2021/09/19 10:14:52;;;;;;;2.83;2.60;;;18.90;77.20;;;;;;5071581;28;20361;-79
2021/09/19 10:17:18;;;;;;;3.10;2.55;;;18.90;77.20;;;;;;5071601;28;20384;-79
2021/09/19 10:19:45;;;;;;;2.38;2.03;;;18.90;77.10;;;;;;5072888;28;20020;-79
2021/09/19 10:22:20;;;;;;;2.83;2.33;;;19.00;77.10;;;;;;5071421;28;20053;-79
2021/09/19 10:24:47;;;;;;;3.70;2.22;;;19.00;77.00;;;;;;5072720;28;20365;-79
2021/09/19 10:27:25;;;;;;;3.15;2.42;;;19.00;76.90;;;;;;5071556;28;20507;-78
2021/09/19 10:30:21;;;;;;;3.13;2.22;;;19.10;76.60;;;;;;5071531;28;20025;-78
2021/09/19 10:33:00;;;;;;;2.33;2.10;;;19.10;76.40;;;;;;5067281;28;20131;-78
2021/09/19 10:35:25;;;;;;;2.22;2.03;;;19.20;76.30;;;;;;5072697;28;20028;-77
2021/09/19 10:38:04;;;;;;;2.08;1.88;;;19.30;76.10;;;;;;5071234;28;20036;-77
2021/09/19 10:40:38;;;;;;;2.30;2.10;;;19.30;75.90;;;;;;5071309;28;20033;-79
2021/09/19 10:43:08;;;;;;;2.33;2.00;;;19.30;75.70;;;;;;5071874;28;20392;-79
2021/09/19 10:45:39;;;;;;;1.98;1.73;;;19.50;75.50;;;;;;5075455;28;20033;-78
2021/09/19 10:48:16;;;;;;;3.85;1.83;;;19.50;75.20;;;;;;5075370;28;20024;-78
2021/09/19 10:50:46;;;;;;;1.77;1.67;;;19.50;74.80;;;;;;5076686;28;20025;-77
2021/09/19 10:53:15;;;;;;;1.80;1.70;;;19.50;74.60;;;;;;5076624;28;20021;-78
2021/09/19 10:55:58;;;;;;;1.80;1.70;;;19.60;74.40;;;;;;5076609;28;20572;-78
2021/09/19 10:58:46;;;;;;;1.80;1.70;;;19.60;74.20;;;;;;5075292;28;20033;-77
2021/09/19 11:01:26;;;;;;;1.80;1.70;;;19.60;74.20;;;;;;5076342;28;20024;-78
2021/09/19 11:04:01;;;;;;;2.00;1.77;;;19.60;74.20;;;;;;5074900;28;20124;-78
2021/09/19 11:06:38;;;;;;;2.20;2.00;;;19.70;74.00;;;;;;5074904;28;20036;-78
2021/09/19 11:09:22;;;;;;;1.98;1.77;;;19.80;74.00;;;;;;5074737;28;20028;-78
2021/09/19 11:12:08;;;;;;;2.03;1.85;;;19.90;73.90;;;;;;5076201;28;20032;-78
2021/09/19 11:14:55;;;;;;;1.85;1.75;;;20.10;73.50;;;;;;5074881;28;20499;-78
2021/09/19 11:17:22;;;;;;;1.90;1.70;;;20.10;73.00;;;;;;5076072;28;20476;-77
2021/09/19 11:20:11;;;;;;;1.88;1.70;;;20.10;73.50;;;;;;5076136;28;20029;-78
2021/09/19 11:22:37;;;;;;;2.53;2.00;;;20.10;72.70;;;;;;5074420;28;20087;-77
2021/09/19 11:25:04;;;;;;;1.83;1.73;;;20.20;72.70;;;;;;5074535;28;20039;-78
2021/09/19 11:27:36;;;;;;;1.90;1.80;;;20.20;72.40;;;;;;5074529;28;20027;-77
2021/09/19 11:30:02;;;;;;;1.65;1.55;;;20.40;72.80;;;;;;5075553;28;20108;-77
2021/09/19 11:32:30;;;;;;;1.73;1.63;;;20.40;72.10;;;;;;5075709;28;20565;-78
2021/09/19 11:34:57;;;;;;;1.85;1.73;;;20.50;71.80;;;;;;5075661;28;20036;-77
2021/09/19 11:37:25;;;;;;;1.80;1.70;;;20.50;71.70;;;;;;5074338;28;20031;-77
2021/09/19 11:39:51;;;;;;;1.60;1.50;;;20.50;71.60;;;;;;5075722;28;20115;-77
2021/09/19 11:42:16;;;;;;;1.50;1.40;;;20.60;71.40;;;;;;5075726;28;20064;-78
2021/09/19 11:44:50;;;;;;;1.40;1.30;;;20.80;71.30;;;;;;5075481;28;20033;-81
2021/09/19 11:47:21;;;;;;;1.90;1.50;;;20.90;70.90;;;;;;5075951;28;20012;-82
2021/09/19 11:53:11;;;;;;;1.50;1.40;;;20.90;70.50;;;;;;5075780;28;20023;-82
2021/09/19 11:55:44;;;;;;;1.40;1.30;;;20.80;70.60;;;;;;5073595;28;20028;-81
2021/09/19 11:58:17;;;;;;;1.70;1.60;;;20.80;70.50;;;;;;5074379;28;20020;-81
2021/09/19 12:04:09;;;;;;;2.15;1.55;;;20.70;70.40;;;;;;5073397;28;20085;-77
2021/09/19 12:09:56;;;;;;;1.52;1.42;;;20.70;70.40;;;;;;5074402;28;20047;-82
2021/09/19 12:16:24;;;;;;;1.52;1.42;;;20.80;70.20;;;;;;5074528;28;20035;-82
2021/09/19 12:18:50;;;;;;;1.60;1.50;;;20.80;70.00;;;;;;5055139;28;20043;-81
2021/09/19 12:21:39;;;;;;;1.55;1.45;;;20.90;70.00;;;;;;5072875;28;20020;-79
2021/09/19 12:24:20;;;;;;;1.77;1.67;;;21.00;69.70;;;;;;5056089;28;20122;-81
2021/09/19 12:26:45;;;;;;;1.75;1.65;;;21.10;69.40;;;;;;5055762;28;20032;-80
2021/09/19 12:29:11;;;;;;;1.70;1.60;;;21.20;69.10;;;;;;5072740;28;20036;-79
2021/09/19 12:31:44;;;;;;;1.90;1.65;;;21.30;68.60;;;;;;5053141;28;20496;-79
2021/09/19 12:34:12;;;;;;;2.83;1.55;;;21.40;68.40;;;;;;5073316;28;20082;-79
2021/09/19 12:36:44;;;;;;;1.38;1.27;;;21.40;68.20;;;;;;5073609;28;20468;-80
2021/09/19 12:39:17;;;;;;;1.40;1.30;;;21.50;67.90;;;;;;5073394;28;20021;-74
2021/09/19 12:41:44;;;;;;;1.50;1.40;;;21.60;67.60;;;;;;5073242;28;20309;-74
2021/09/19 12:47:20;;;;;;;2.25;1.50;;;21.60;67.10;;;;;;5074763;28;20165;-74
2021/09/19 12:49:46;;;;;;;1.50;1.40;;;21.70;67.10;;;;;;5074222;28;20024;-75
2021/09/19 12:52:15;;;;;;;1.50;1.40;;;21.70;66.60;;;;;;5073136;28;20021;-74
2021/09/19 12:54:47;;;;;;;1.40;1.30;;;21.80;66.30;;;;;;5071896;28;20463;-73
2021/09/19 13:00:35;;;;;;;1.58;1.48;;;21.90;65.90;;;;;;5072291;28;20082;-75
2021/09/19 13:03:06;;;;;;;1.67;1.58;;;22.00;66.00;;;;;;5071901;28;20059;-73
2021/09/19 13:05:33;;;;;;;2.70;1.77;;;22.10;65.80;;;;;;5054968;28;20098;-73
2021/09/19 13:07:59;;;;;;;2.40;2.00;;;22.30;65.40;;;;;;5054894;28;20024;-72
2021/09/19 13:10:25;;;;;;;2.05;1.85;;;22.40;65.10;;;;;;5071830;28;20031;-72
2021/09/19 13:12:51;;;;;;;1.85;1.75;;;22.50;65.00;;;;;;5055025;28;20120;-77
2021/09/19 13:15:20;;;;;;;2.03;1.92;;;22.60;64.90;;;;;;5071593;28;20043;-75
2021/09/19 13:17:46;;;;;;;2.00;1.80;;;22.60;64.80;;;;;;5071597;28;20512;-75
2021/09/19 13:20:12;;;;;;;2.45;2.10;;;22.60;64.60;;;;;;5054653;28;20119;-76
2021/09/19 13:22:38;;;;;;;2.30;2.10;;;22.50;64.40;;;;;;5054513;28;20176;-75
2021/09/19 13:25:04;;;;;;;2.60;2.15;;;22.40;63.90;;;;;;5056764;28;20123;-75
2021/09/19 13:27:30;;;;;;;2.10;1.90;;;22.20;64.00;;;;;;5073326;28;20082;-75
2021/09/19 13:29:55;;;;;;;2.60;2.40;;;22.10;64.40;;;;;;5072273;28;20111;-75
2021/09/19 13:32:21;;;;;;;2.85;2.47;;;22.20;64.60;;;;;;5072264;28;20111;-75